Tecumseh, Canada
Current Conditions -  °F | °C
As of 1:00 PM on Saturday 25 Oct 2014 (Local Time) from CYQG Reporting Station
Broken Clouds Broken Clouds  
Wind Chill: 64°   Ceiling: 2100
Heat Index: 64°   Visibility: 7mi
Dew Point: 54°   Wind: 18mph
Humidity: 68%   Direction: 280°W
Pressure: 29.79"   Gusts: NA
Location:  42.32°N, 82.89°W
Report Text: CYQG 251700Z 28016KT 7SM BKN021 18/12 A2979 RMK CU6 SLP087 DENSITY ALT 1200FT
Loading
Personal Weather Stations






























Interactive Weather Map
Tropical Storm Tracking
New forecast layout! Learn more

10-Day Weather Forecast

Advertisements
Track Severe Weather on mobile